createdAt,value
2022-08-03T00:00:24.354Z,18.62
2022-08-03T00:02:51.466Z,18.54
2022-08-03T00:05:18.067Z,18.43
2022-08-03T00:07:44.543Z,18.38
2022-08-03T00:10:12.630Z,18.35
2022-08-03T00:12:39.174Z,18.39
2022-08-03T00:15:08.337Z,18.28
2022-08-03T00:17:52.589Z,18.14
2022-08-03T00:20:23.322Z,18.08
2022-08-03T00:22:50.398Z,18.11
2022-08-03T00:25:17.643Z,18.01
2022-08-03T00:27:44.140Z,17.91
2022-08-03T00:30:10.958Z,17.88
2022-08-03T00:32:40.036Z,17.85
2022-08-03T00:35:18.067Z,17.87
2022-08-03T00:37:58.728Z,17.81
2022-08-03T00:40:26.292Z,17.87
2022-08-03T00:42:57.943Z,17.80
2022-08-03T00:45:32.826Z,17.73
2022-08-03T00:48:00.345Z,17.80
2022-08-03T00:50:29.839Z,17.87
2022-08-03T00:52:59.204Z,17.75
2022-08-03T00:55:26.119Z,17.74
2022-08-03T00:57:53.313Z,17.67
2022-08-03T01:00:26.270Z,17.64
2022-08-03T01:02:53.861Z,17.53
2022-08-03T01:05:22.112Z,17.55
2022-08-03T01:08:08.216Z,17.48
2022-08-03T01:10:53.167Z,17.40
2022-08-03T01:14:01.686Z,17.37
2022-08-03T01:16:37.331Z,17.31
2022-08-03T01:19:21.820Z,17.34
2022-08-03T01:22:08.208Z,17.32
2022-08-03T01:24:50.855Z,17.37
2022-08-03T01:27:38.931Z,17.29
2022-08-03T01:30:10.060Z,17.24
2022-08-03T01:32:59.860Z,17.26
2022-08-03T01:35:31.627Z,17.25
2022-08-03T01:38:03.351Z,17.28
2022-08-03T01:40:34.368Z,17.26
2022-08-03T01:43:03.455Z,17.26
2022-08-03T01:45:34.129Z,17.20
2022-08-03T01:48:02.738Z,17.18
2022-08-03T01:50:31.838Z,17.29
2022-08-03T01:52:59.266Z,17.22
2022-08-03T01:55:29.587Z,17.20
2022-08-03T01:58:06.062Z,17.13
2022-08-03T02:00:36.615Z,17.14
2022-08-03T02:03:05.907Z,17.15
2022-08-03T02:05:33.222Z,17.11
2022-08-03T02:08:01.866Z,17.04
2022-08-03T02:10:35.365Z,17.05
2022-08-03T02:13:05.174Z,17.03
2022-08-03T02:15:33.857Z,17.01
2022-08-03T02:18:02.020Z,16.98
2022-08-03T02:20:30.228Z,16.93
2022-08-03T02:22:56.751Z,16.92
2022-08-03T02:25:23.616Z,16.92
2022-08-03T02:27:58.030Z,16.87
2022-08-03T02:30:31.112Z,16.88
2022-08-03T02:32:59.295Z,16.82
2022-08-03T02:35:29.489Z,16.80
2022-08-03T02:38:02.253Z,16.77
2022-08-03T02:40:30.447Z,16.73
2022-08-03T02:43:00.509Z,16.73
2022-08-03T02:45:29.360Z,16.71
2022-08-03T02:48:02.679Z,16.70
2022-08-03T02:50:30.672Z,16.68
2022-08-03T02:52:58.884Z,16.65
2022-08-03T02:55:26.597Z,16.62
2022-08-03T02:57:54.445Z,16.58
2022-08-03T03:00:28.228Z,16.51
2022-08-03T03:03:01.586Z,16.49
2022-08-03T03:05:53.244Z,16.43
2022-08-03T03:08:20.917Z,16.36
2022-08-03T03:10:55.932Z,16.40
2022-08-03T03:13:23.202Z,16.42
2022-08-03T03:15:50.909Z,16.39
2022-08-03T03:18:22.108Z,16.36
2022-08-03T03:20:51.608Z,16.33
2022-08-03T03:23:19.744Z,16.37
2022-08-03T03:25:46.833Z,16.31
2022-08-03T03:28:13.619Z,16.30
2022-08-03T03:30:40.177Z,16.26
2022-08-03T03:33:07.458Z,16.22
2022-08-03T03:35:38.913Z,16.24
2022-08-03T03:38:06.771Z,16.22
2022-08-03T03:40:35.561Z,16.22
2022-08-03T03:43:02.744Z,16.24
2022-08-03T03:45:31.695Z,16.24
2022-08-03T03:48:00.635Z,16.27
2022-08-03T03:50:28.654Z,16.31
2022-08-03T03:52:55.253Z,16.30
2022-08-03T03:55:21.798Z,16.30
2022-08-03T03:57:48.347Z,16.31
2022-08-03T04:00:16.956Z,16.30
2022-08-03T04:02:44.438Z,16.31
2022-08-03T04:05:29.866Z,16.34
2022-08-03T04:08:18.445Z,16.36
2022-08-03T04:11:00.465Z,16.35
2022-08-03T04:13:33.930Z,16.34
2022-08-03T04:16:02.457Z,16.39
2022-08-03T04:18:32.742Z,16.37
2022-08-03T04:21:03.519Z,16.35
2022-08-03T04:23:34.668Z,16.38
2022-08-03T04:26:03.234Z,16.44
2022-08-03T04:28:32.570Z,16.46
2022-08-03T04:31:01.291Z,16.57
2022-08-03T04:33:31.512Z,16.68
2022-08-03T04:36:03.485Z,16.65
2022-08-03T04:38:36.361Z,16.62
2022-08-03T04:41:03.726Z,16.75
2022-08-03T04:43:33.602Z,16.72
2022-08-03T04:46:01.531Z,16.73
2022-08-03T04:48:28.805Z,16.73
2022-08-03T04:50:55.706Z,16.78
2022-08-03T04:53:22.535Z,16.82
2022-08-03T04:55:49.814Z,16.83
2022-08-03T04:58:16.362Z,16.95
2022-08-03T05:00:43.223Z,17.05
2022-08-03T05:03:20.535Z,17.09
2022-08-03T05:06:01.971Z,17.11
2022-08-03T05:08:46.306Z,17.22
2022-08-03T05:11:16.377Z,17.33
2022-08-03T05:13:43.620Z,17.40
2022-08-03T05:16:10.273Z,17.48
2022-08-03T05:18:36.909Z,17.57
2022-08-03T05:21:04.999Z,17.73
2022-08-03T05:23:31.557Z,17.84
2022-08-03T05:25:58.151Z,18.02
2022-08-03T05:28:24.692Z,18.12
2022-08-03T05:30:51.215Z,18.27
2022-08-03T05:33:17.728Z,18.34
2022-08-03T05:35:56.195Z,18.43
2022-08-03T05:38:34.103Z,18.59
2022-08-03T05:41:22.365Z,18.68
2022-08-03T05:43:49.342Z,18.84
2022-08-03T05:46:16.079Z,18.95
2022-08-03T05:48:42.938Z,19.09
2022-08-03T05:51:11.875Z,19.17
2022-08-03T05:53:39.812Z,19.34
2022-08-03T05:56:13.697Z,19.44
2022-08-03T05:58:43.596Z,19.57
2022-08-03T06:01:10.178Z,19.72
2022-08-03T06:03:36.726Z,19.87
2022-08-03T06:06:03.272Z,19.96
2022-08-03T06:08:29.818Z,20.09
2022-08-03T06:10:56.301Z,20.20
2022-08-03T06:13:22.797Z,20.31
2022-08-03T06:15:49.296Z,20.37
2022-08-03T06:18:16.160Z,20.46
2022-08-03T06:20:42.643Z,20.58
2022-08-03T06:23:15.907Z,20.76
2022-08-03T06:25:44.674Z,20.79
2022-08-03T06:28:35.460Z,21.05
2022-08-03T06:30:59.228Z,21.24
2022-08-03T06:33:26.567Z,21.43
2022-08-03T06:36:13.024Z,21.50
2022-08-03T06:38:39.540Z,21.58
2022-08-03T06:41:06.034Z,21.74
2022-08-03T06:43:35.996Z,21.89
2022-08-03T06:46:03.181Z,21.98
2022-08-03T06:48:29.953Z,22.14
2022-08-03T06:50:56.776Z,22.19
2022-08-03T06:53:23.254Z,22.36
2022-08-03T06:55:54.184Z,22.44
2022-08-03T06:58:21.253Z,22.63
2022-08-03T07:00:48.062Z,22.85
2022-08-03T07:03:15.168Z,23.01
2022-08-03T07:05:42.372Z,23.05
2022-08-03T07:08:09.127Z,23.15
2022-08-03T07:10:36.224Z,23.17
2022-08-03T07:13:02.789Z,23.24
2022-08-03T07:15:54.413Z,23.36
2022-08-03T07:18:15.937Z,23.65
2022-08-03T07:20:42.570Z,23.69
2022-08-03T07:23:09.909Z,23.86
2022-08-03T07:25:42.583Z,24.02
2022-08-03T07:28:09.094Z,24.17
2022-08-03T07:30:36.027Z,24.13
2022-08-03T07:33:02.585Z,24.17
2022-08-03T07:35:29.196Z,24.10
2022-08-03T07:37:55.680Z,24.01
2022-08-03T07:40:22.939Z,24.10
2022-08-03T07:42:53.249Z,24.10
2022-08-03T07:45:21.476Z,24.21
2022-08-03T07:47:53.313Z,24.32
2022-08-03T07:50:21.241Z,24.53
2022-08-03T07:52:48.022Z,24.66
2022-08-03T07:55:14.926Z,24.86
2022-08-03T07:57:41.627Z,24.92
2022-08-03T08:00:15.932Z,25.03
2022-08-03T08:02:42.804Z,24.86
2022-08-03T08:05:11.006Z,24.84
2022-08-03T08:07:40.386Z,25.03
2022-08-03T08:10:10.051Z,25.12
2022-08-03T08:12:40.191Z,25.43
2022-08-03T08:15:07.936Z,25.41
2022-08-03T08:17:48.743Z,25.55
2022-08-03T08:20:28.000Z,25.73
2022-08-03T08:23:01.078Z,25.86
2022-08-03T08:25:29.441Z,25.96
2022-08-03T08:28:29.185Z,26.09
2022-08-03T08:30:42.540Z,26.16
2022-08-03T08:33:22.152Z,26.12
2022-08-03T08:35:50.510Z,26.12
2022-08-03T08:38:17.028Z,26.18
2022-08-03T08:40:43.679Z,26.22
2022-08-03T08:43:10.175Z,26.34
2022-08-03T08:45:37.627Z,26.34
2022-08-03T08:48:08.385Z,26.39
2022-08-03T08:50:37.510Z,26.55
2022-08-03T08:53:09.824Z,26.67
2022-08-03T08:55:59.097Z,26.77
2022-08-03T08:58:30.292Z,26.86
2022-08-03T09:00:57.159Z,26.96
2022-08-03T09:03:29.636Z,27.04
2022-08-03T09:05:58.823Z,27.33
2022-08-03T09:08:25.799Z,27.32
2022-08-03T09:10:52.549Z,27.33
2022-08-03T09:13:19.581Z,27.77
2022-08-03T09:16:00.918Z,27.65
2022-08-03T09:18:33.117Z,27.62
2022-08-03T09:21:31.606Z,27.61
2022-08-03T09:24:03.204Z,27.79
2022-08-03T09:26:31.874Z,28.14
2022-08-03T09:29:05.648Z,28.30
2022-08-03T09:31:46.892Z,28.25
2022-08-03T09:34:15.981Z,28.36
2022-08-03T09:36:44.855Z,28.68
2022-08-03T09:39:13.655Z,28.77
2022-08-03T09:41:42.452Z,28.83
2022-08-03T09:44:25.233Z,28.75
2022-08-03T09:46:56.705Z,28.93
2022-08-03T09:49:24.542Z,28.87
2022-08-03T09:52:32.734Z,28.85
2022-08-03T09:54:38.814Z,28.99
2022-08-03T09:57:05.372Z,28.85
2022-08-03T09:59:33.304Z,28.85
2022-08-03T10:02:00.633Z,28.82
2022-08-03T10:04:27.813Z,29.03
2022-08-03T10:07:09.462Z,28.81
2022-08-03T10:09:37.950Z,28.92
2022-08-03T10:12:11.054Z,29.04
2022-08-03T10:14:42.146Z,29.12
2022-08-03T10:17:09.636Z,29.02
2022-08-03T10:19:36.557Z,29.03
2022-08-03T10:22:07.063Z,29.27
2022-08-03T10:24:36.115Z,29.28
2022-08-03T10:27:08.052Z,29.52
2022-08-03T10:29:39.469Z,29.52
2022-08-03T10:32:30.226Z,29.22
2022-08-03T10:35:19.502Z,29.25
2022-08-03T10:38:00.446Z,29.30
2022-08-03T10:40:48.129Z,29.32
2022-08-03T10:43:23.091Z,29.16
2022-08-03T10:45:50.490Z,29.00
2022-08-03T10:48:19.014Z,28.98
2022-08-03T10:50:48.380Z,28.98
2022-08-03T10:53:17.984Z,28.97
2022-08-03T10:56:05.786Z,29.07
2022-08-03T10:58:57.262Z,29.37
2022-08-03T11:01:58.734Z,29.49
2022-08-03T11:04:26.731Z,29.68
2022-08-03T11:07:24.822Z,29.62
2022-08-03T11:09:56.178Z,29.82
2022-08-03T11:12:33.399Z,29.69
2022-08-03T11:15:08.826Z,29.76
2022-08-03T11:17:46.846Z,29.78
2022-08-03T11:20:45.950Z,29.92
2022-08-03T11:23:12.865Z,30.10
2022-08-03T11:26:18.067Z,30.02
2022-08-03T11:28:46.527Z,29.89
2022-08-03T11:31:46.844Z,29.92
2022-08-03T11:34:10.774Z,29.82
2022-08-03T11:37:14.823Z,29.93
2022-08-03T11:39:46.465Z,30.03
2022-08-03T11:42:25.543Z,29.99
2022-08-03T11:44:57.262Z,29.79
2022-08-03T11:47:26.989Z,29.55
2022-08-03T11:50:02.257Z,29.60
2022-08-03T11:52:35.724Z,29.73
2022-08-03T11:55:02.383Z,29.59
2022-08-03T11:59:01.067Z,29.77
2022-08-03T12:00:28.896Z,30.15
2022-08-03T12:03:07.444Z,30.07
2022-08-03T12:05:38.649Z,30.15
2022-08-03T12:08:07.229Z,30.25
2022-08-03T12:10:35.009Z,30.28
2022-08-03T12:13:05.904Z,30.31
2022-08-03T12:15:57.746Z,30.29
2022-08-03T12:18:24.751Z,30.30
2022-08-03T12:20:54.319Z,30.58
2022-08-03T12:23:20.863Z,30.44
2022-08-03T12:25:47.846Z,30.55
2022-08-03T12:28:36.026Z,30.41
2022-08-03T12:31:07.660Z,30.39
2022-08-03T12:34:05.160Z,30.44
2022-08-03T12:36:33.961Z,30.32
2022-08-03T12:39:11.805Z,30.49
2022-08-03T12:41:39.895Z,30.52
2022-08-03T12:44:08.158Z,30.68
2022-08-03T12:46:43.999Z,30.65
2022-08-03T12:49:15.523Z,30.64
2022-08-03T12:51:42.099Z,30.56
2022-08-03T12:54:24.529Z,30.61
2022-08-03T12:57:10.458Z,30.65
2022-08-03T12:59:45.123Z,30.56
2022-08-03T13:02:24.429Z,30.68
2022-08-03T13:04:53.117Z,30.74
2022-08-03T13:07:20.564Z,30.66
2022-08-03T13:09:55.367Z,30.79
2022-08-03T13:12:24.357Z,30.73
2022-08-03T13:14:54.795Z,30.77
2022-08-03T13:17:21.809Z,30.63
2022-08-03T13:19:49.226Z,30.89
2022-08-03T13:22:16.753Z,30.98
2022-08-03T13:24:45.090Z,31.09
2022-08-03T13:28:01.991Z,31.15
2022-08-03T13:29:58.703Z,31.24
2022-08-03T13:32:25.429Z,31.12
2022-08-03T13:34:52.040Z,30.89
2022-08-03T13:37:18.611Z,30.94
2022-08-03T13:39:57.476Z,31.03
2022-08-03T13:42:28.360Z,31.03
2022-08-03T13:44:54.867Z,30.95
2022-08-03T13:47:21.776Z,31.07
2022-08-03T13:49:59.595Z,31.24
2022-08-03T13:52:32.924Z,31.21
2022-08-03T13:55:00.150Z,30.99
2022-08-03T13:58:02.507Z,31.16
2022-08-03T14:00:26.608Z,31.14
2022-08-03T14:03:13.734Z,31.02
2022-08-03T14:05:41.943Z,30.88
2022-08-03T14:08:08.864Z,30.97
2022-08-03T14:10:41.353Z,31.29
2022-08-03T14:13:08.527Z,30.90
2022-08-03T14:15:37.892Z,30.70
2022-08-03T14:18:13.026Z,30.66
2022-08-03T14:20:49.031Z,30.49
2022-08-03T14:23:21.023Z,30.36
2022-08-03T14:25:51.514Z,30.31
2022-08-03T14:28:20.877Z,30.25
2022-08-03T14:30:48.540Z,30.44
2022-08-03T14:33:15.375Z,30.56
2022-08-03T14:35:41.945Z,30.65
2022-08-03T14:38:08.428Z,30.65
2022-08-03T14:40:35.015Z,30.78
2022-08-03T14:43:02.563Z,30.81
2022-08-03T14:45:29.372Z,30.83
2022-08-03T14:50:29.392Z,30.81
2022-08-03T14:50:48.403Z,30.92
2022-08-03T14:53:17.749Z,30.86
2022-08-03T14:55:50.557Z,30.89
2022-08-03T14:58:25.377Z,30.78
2022-08-03T15:00:53.413Z,30.98
2022-08-03T15:03:23.588Z,30.99
2022-08-03T15:05:54.362Z,30.96
2022-08-03T15:08:22.313Z,30.86
2022-08-03T15:10:49.713Z,30.75
2022-08-03T15:13:17.652Z,30.53
2022-08-03T15:15:44.172Z,30.57
2022-08-03T15:18:11.076Z,30.38
2022-08-03T15:20:46.206Z,30.15
2022-08-03T15:23:14.735Z,30.12
2022-08-03T15:26:06.524Z,30.24
2022-08-03T15:28:29.027Z,30.30
2022-08-03T15:30:55.506Z,30.50
2022-08-03T15:33:22.001Z,30.64
2022-08-03T15:35:49.728Z,30.65
2022-08-03T15:38:16.307Z,30.87
2022-08-03T15:40:43.003Z,30.78
2022-08-03T15:43:09.718Z,30.59
2022-08-03T15:45:37.049Z,30.55
2022-08-03T15:48:06.843Z,30.52
2022-08-03T15:50:33.378Z,30.60
2022-08-03T15:52:59.934Z,30.60
2022-08-03T15:55:27.227Z,30.48
2022-08-03T15:58:59.573Z,30.45
2022-08-03T16:00:41.442Z,30.34
2022-08-03T16:03:08.038Z,30.24
2022-08-03T16:05:35.250Z,30.21
2022-08-03T16:08:04.177Z,30.18
2022-08-03T16:10:32.209Z,30.10
2022-08-03T16:13:00.003Z,30.24
2022-08-03T16:15:26.896Z,30.11
2022-08-03T16:17:53.468Z,30.15
2022-08-03T16:20:31.463Z,30.07
2022-08-03T16:23:10.898Z,30.13
2022-08-03T16:25:39.767Z,30.06
2022-08-03T16:28:13.062Z,29.90
2022-08-03T16:30:42.875Z,29.88
2022-08-03T16:33:10.119Z,29.95
2022-08-03T16:35:36.764Z,29.93
2022-08-03T16:38:09.306Z,30.05
2022-08-03T16:40:36.872Z,30.09
2022-08-03T16:43:17.952Z,30.12
2022-08-03T16:45:46.144Z,29.96
2022-08-03T16:48:12.633Z,29.98
2022-08-03T16:50:39.196Z,29.81
2022-08-03T16:53:10.051Z,29.81
2022-08-03T16:55:48.496Z,29.74
2022-08-03T16:58:34.801Z,29.80
2022-08-03T17:01:10.913Z,29.88
2022-08-03T17:04:01.182Z,29.77
2022-08-03T17:06:34.218Z,29.82
2022-08-03T17:09:01.971Z,29.62
2022-08-03T17:11:30.190Z,29.43
2022-08-03T17:14:00.208Z,29.24
2022-08-03T17:16:27.212Z,29.28
2022-08-03T17:19:02.562Z,29.19
2022-08-03T17:21:32.387Z,29.04
2022-08-03T17:24:19.949Z,28.94
2022-08-03T17:26:50.094Z,28.70
2022-08-03T17:29:22.910Z,28.88
2022-08-03T17:31:53.343Z,28.76
2022-08-03T17:34:26.286Z,28.59
2022-08-03T17:37:27.394Z,28.89
2022-08-03T17:39:58.273Z,28.56
2022-08-03T17:42:30.295Z,28.53
2022-08-03T17:44:58.085Z,28.25
2022-08-03T17:47:29.355Z,28.27
2022-08-03T17:50:25.378Z,27.96
2022-08-03T17:53:01.061Z,27.73
2022-08-03T17:55:54.862Z,27.66
2022-08-03T17:58:25.877Z,27.93
2022-08-03T18:01:59.213Z,27.77
2022-08-03T18:04:10.962Z,27.52
2022-08-03T18:06:55.804Z,27.54
2022-08-03T18:10:06.112Z,27.35
2022-08-03T18:12:27.333Z,27.28
2022-08-03T18:15:08.660Z,27.32
2022-08-03T18:17:55.479Z,27.06
2022-08-03T18:20:32.955Z,26.93
2022-08-03T18:23:06.388Z,26.87
2022-08-03T18:25:45.227Z,26.74
2022-08-03T18:28:14.593Z,26.89
2022-08-03T18:30:54.399Z,26.82
2022-08-03T18:36:18.134Z,26.42
2022-08-03T18:38:51.810Z,26.31
2022-08-03T18:41:32.232Z,26.27
2022-08-03T18:44:08.566Z,25.96
2022-08-03T18:47:16.693Z,25.85
2022-08-03T18:50:01.460Z,25.50
2022-08-03T18:52:40.126Z,25.66
2022-08-03T18:55:33.039Z,25.42
2022-08-03T18:58:09.026Z,25.41
2022-08-03T19:01:57.903Z,25.07
2022-08-03T19:04:08.119Z,24.79
2022-08-03T19:06:41.946Z,24.48
2022-08-03T19:09:15.443Z,24.43
2022-08-03T19:12:12.797Z,24.45
2022-08-03T19:14:43.131Z,24.26
2022-08-03T19:17:11.978Z,24.08
2022-08-03T19:19:44.870Z,23.85
2022-08-03T19:22:15.798Z,23.78
2022-08-03T19:24:45.820Z,23.45
2022-08-03T19:27:13.505Z,23.45
2022-08-03T19:32:34.995Z,22.98
2022-08-03T19:35:04.615Z,23.08
2022-08-03T19:37:40.395Z,22.84
2022-08-03T19:40:10.242Z,22.74
2022-08-03T19:42:40.457Z,22.68
2022-08-03T19:45:11.373Z,22.51
2022-08-03T19:47:55.050Z,22.28
2022-08-03T19:50:21.597Z,22.35
2022-08-03T19:52:49.657Z,22.15
2022-08-03T19:55:17.817Z,22.25
2022-08-03T19:57:49.390Z,22.38
2022-08-03T20:00:19.610Z,22.08
2022-08-03T20:02:47.280Z,22.02
2022-08-03T20:05:18.176Z,22.18
2022-08-03T20:07:47.745Z,22.11
2022-08-03T20:10:17.939Z,22.22
2022-08-03T20:12:45.876Z,21.94
2022-08-03T20:15:13.199Z,21.78
2022-08-03T20:20:33.020Z,22.14
2022-08-03T20:23:06.819Z,21.78
2022-08-03T20:25:48.615Z,21.87
2022-08-03T20:28:49.734Z,21.82
2022-08-03T20:31:17.602Z,21.72
2022-08-03T20:33:48.477Z,21.59
2022-08-03T20:36:31.070Z,21.57
2022-08-03T20:38:58.187Z,21.68
2022-08-03T20:41:25.407Z,21.47
2022-08-03T20:43:51.990Z,21.49
2022-08-03T20:46:29.216Z,21.34
2022-08-03T20:49:01.405Z,21.34
2022-08-03T20:51:49.820Z,21.25
2022-08-03T20:54:28.770Z,21.29
2022-08-03T20:56:58.909Z,21.47
2022-08-03T20:59:47.057Z,21.39
2022-08-03T21:02:28.924Z,21.21
2022-08-03T21:04:57.268Z,21.22
2022-08-03T21:07:24.887Z,21.03
2022-08-03T21:10:13.666Z,21.04
2022-08-03T21:12:53.569Z,20.94
2022-08-03T21:13:02.300Z,23.19
2022-08-03T21:13:03.793Z,22.12
2022-08-03T21:13:04.544Z,26.72
2022-08-03T21:16:11.352Z,20.86
2022-08-03T21:18:20.193Z,20.85
2022-08-03T21:20:48.258Z,20.91
2022-08-03T21:23:37.087Z,20.85
2022-08-03T21:26:03.071Z,20.74
2022-08-03T21:28:29.755Z,20.66
2022-08-03T21:30:59.542Z,20.71
2022-08-03T21:33:27.962Z,20.65
2022-08-03T21:35:54.731Z,20.64
2022-08-03T21:38:29.942Z,20.52
2022-08-03T21:40:57.198Z,20.59
2022-08-03T21:43:24.499Z,20.40
2022-08-03T21:45:59.596Z,20.33
2022-08-03T21:48:28.027Z,20.26
2022-08-03T21:50:54.963Z,20.23
2022-08-03T21:53:25.653Z,20.16
2022-08-03T21:56:16.736Z,20.07
2022-08-03T21:58:51.263Z,20.12
2022-08-03T22:01:22.104Z,20.00
2022-08-03T22:03:51.165Z,20.01
2022-08-03T22:06:22.440Z,20.01
2022-08-03T22:08:53.825Z,20.00
2022-08-03T22:11:21.380Z,20.00
2022-08-03T22:13:48.236Z,19.89
2022-08-03T22:16:15.917Z,19.89
2022-08-03T22:18:45.558Z,19.90
2022-08-03T22:21:15.553Z,19.90
2022-08-03T22:23:45.735Z,19.79
2022-08-03T22:26:17.798Z,19.93
2022-08-03T22:29:01.834Z,20.06
2022-08-03T22:31:57.002Z,20.19
2022-08-03T22:34:15.902Z,20.07
2022-08-03T22:36:42.870Z,19.95
2022-08-03T22:39:09.950Z,19.80
2022-08-03T22:41:36.585Z,19.75
2022-08-03T22:44:04.780Z,20.03
2022-08-03T22:46:33.844Z,20.04
2022-08-03T22:49:00.933Z,19.80
2022-08-03T22:51:28.965Z,19.73
2022-08-03T22:53:56.318Z,19.69
2022-08-03T22:56:23.331Z,19.74
2022-08-03T22:58:49.836Z,19.91
2022-08-03T23:01:20.912Z,19.82
2022-08-03T23:04:02.054Z,19.74
2022-08-03T23:06:34.551Z,19.67
2022-08-03T23:09:05.561Z,19.62
2022-08-03T23:11:36.572Z,19.52
2022-08-03T23:14:10.090Z,19.53
2022-08-03T23:16:39.654Z,19.42
2022-08-03T23:19:17.430Z,19.44
2022-08-03T23:22:02.381Z,19.35
2022-08-03T23:24:33.302Z,19.36
2022-08-03T23:27:02.911Z,19.33
2022-08-03T23:29:31.540Z,19.31
2022-08-03T23:31:59.653Z,19.29
2022-08-03T23:34:46.558Z,19.29
2022-08-03T23:37:15.020Z,19.32
2022-08-03T23:39:45.244Z,19.33
2022-08-03T23:42:15.128Z,19.37
2022-08-03T23:44:42.829Z,19.44
2022-08-03T23:47:09.377Z,19.46
2022-08-03T23:49:36.013Z,19.52
2022-08-03T23:52:26.766Z,19.62
2022-08-03T23:55:03.237Z,19.63
2022-08-03T23:57:45.658Z,19.76
